sensor_id;sensor_type;location;lat;lon;timestamp;P1;durP1;ratioP1;P2;durP2;ratioP2
68438;SDS011;55421;51.600;5.718;2023-10-19T00:02:13;11.40;;;8.20;;
68438;SDS011;55421;51.600;5.718;2023-10-19T00:04:45;11.90;;;8.50;;
68438;SDS011;55421;51.600;5.718;2023-10-19T00:07:12;13.40;;;9.00;;
68438;SDS011;55421;51.600;5.718;2023-10-19T00:09:42;11.20;;;8.30;;
68438;SDS011;55421;51.600;5.718;2023-10-19T00:12:12;11.30;;;8.10;;
68438;SDS011;55421;51.600;5.718;2023-10-19T00:14:41;11.20;;;8.70;;
68438;SDS011;55421;51.600;5.718;2023-10-19T00:17:07;16.30;;;9.30;;
68438;SDS011;55421;51.600;5.718;2023-10-19T00:19:37;10.60;;;8.60;;
68438;SDS011;55421;51.600;5.718;2023-10-19T00:22:23;11.70;;;8.60;;
68438;SDS011;55421;51.600;5.718;2023-10-19T00:24:50;11.90;;;8.30;;
68438;SDS011;55421;51.600;5.718;2023-10-19T00:27:17;12.90;;;8.00;;
68438;SDS011;55421;51.600;5.718;2023-10-19T00:29:45;10.60;;;7.50;;
68438;SDS011;55421;51.600;5.718;2023-10-19T00:32:16;10.70;;;7.40;;
68438;SDS011;55421;51.600;5.718;2023-10-19T00:34:44;11.90;;;8.80;;
68438;SDS011;55421;51.600;5.718;2023-10-19T00:37:18;11.90;;;8.10;;
68438;SDS011;55421;51.600;5.718;2023-10-19T00:39:52;11.90;;;7.80;;
68438;SDS011;55421;51.600;5.718;2023-10-19T00:42:21;11.00;;;7.70;;
68438;SDS011;55421;51.600;5.718;2023-10-19T00:44:52;13.90;;;7.90;;
68438;SDS011;55421;51.600;5.718;2023-10-19T00:47:27;10.70;;;8.30;;
68438;SDS011;55421;51.600;5.718;2023-10-19T00:50:00;11.00;;;7.20;;
68438;SDS011;55421;51.600;5.718;2023-10-19T00:52:31;10.70;;;7.80;;
68438;SDS011;55421;51.600;5.718;2023-10-19T00:54:58;10.50;;;7.50;;
68438;SDS011;55421;51.600;5.718;2023-10-19T00:57:25;11.10;;;8.10;;
68438;SDS011;55421;51.600;5.718;2023-10-19T01:00:03;11.00;;;7.80;;
68438;SDS011;55421;51.600;5.718;2023-10-19T01:02:39;10.40;;;7.40;;
68438;SDS011;55421;51.600;5.718;2023-10-19T01:05:12;9.70;;;7.30;;
68438;SDS011;55421;51.600;5.718;2023-10-19T01:07:47;10.10;;;7.70;;
68438;SDS011;55421;51.600;5.718;2023-10-19T01:10:23;9.40;;;7.60;;
68438;SDS011;55421;51.600;5.718;2023-10-19T01:12:51;9.80;;;8.00;;
68438;SDS011;55421;51.600;5.718;2023-10-19T01:15:20;12.40;;;7.80;;
68438;SDS011;55421;51.600;5.718;2023-10-19T01:17:56;10.10;;;7.60;;
68438;SDS011;55421;51.600;5.718;2023-10-19T01:20:26;10.70;;;7.50;;
68438;SDS011;55421;51.600;5.718;2023-10-19T01:23:01;10.10;;;8.00;;
68438;SDS011;55421;51.600;5.718;2023-10-19T01:25:52;9.90;;;7.60;;
68438;SDS011;55421;51.600;5.718;2023-10-19T01:28:33;10.90;;;7.80;;
68438;SDS011;55421;51.600;5.718;2023-10-19T01:31:22;9.80;;;7.60;;
68438;SDS011;55421;51.600;5.718;2023-10-19T01:33:58;11.10;;;7.40;;
68438;SDS011;55421;51.600;5.718;2023-10-19T01:36:35;11.90;;;7.80;;
68438;SDS011;55421;51.600;5.718;2023-10-19T01:39:08;10.40;;;7.30;;
68438;SDS011;55421;51.600;5.718;2023-10-19T01:41:38;10.40;;;7.80;;
68438;SDS011;55421;51.600;5.718;2023-10-19T01:44:07;11.20;;;7.20;;
68438;SDS011;55421;51.600;5.718;2023-10-19T01:46:34;11.50;;;7.90;;
68438;SDS011;55421;51.600;5.718;2023-10-19T01:49:03;10.90;;;7.30;;
68438;SDS011;55421;51.600;5.718;2023-10-19T01:51:32;10.30;;;7.50;;
68438;SDS011;55421;51.600;5.718;2023-10-19T01:54:05;10.80;;;7.20;;
68438;SDS011;55421;51.600;5.718;2023-10-19T01:56:33;12.60;;;7.70;;
68438;SDS011;55421;51.600;5.718;2023-10-19T01:59:03;8.20;;;7.00;;
68438;SDS011;55421;51.600;5.718;2023-10-19T02:01:31;9.80;;;7.00;;
68438;SDS011;55421;51.600;5.718;2023-10-19T02:04:00;12.40;;;7.70;;
68438;SDS011;55421;51.600;5.718;2023-10-19T02:06:31;10.50;;;6.90;;
68438;SDS011;55421;51.600;5.718;2023-10-19T02:09:11;9.10;;;7.00;;
68438;SDS011;55421;51.600;5.718;2023-10-19T02:11:55;12.90;;;6.80;;
68438;SDS011;55421;51.600;5.718;2023-10-19T02:14:24;9.90;;;6.90;;
68438;SDS011;55421;51.600;5.718;2023-10-19T02:16:56;10.80;;;6.80;;
68438;SDS011;55421;51.600;5.718;2023-10-19T02:19:25;11.50;;;8.50;;
68438;SDS011;55421;51.600;5.718;2023-10-19T02:21:55;19.30;;;12.60;;
68438;SDS011;55421;51.600;5.718;2023-10-19T02:24:23;17.40;;;13.40;;
68438;SDS011;55421;51.600;5.718;2023-10-19T02:26:54;22.00;;;14.00;;
68438;SDS011;55421;51.600;5.718;2023-10-19T02:29:22;14.00;;;9.60;;
68438;SDS011;55421;51.600;5.718;2023-10-19T02:31:50;14.30;;;8.50;;
68438;SDS011;55421;51.600;5.718;2023-10-19T02:34:16;12.40;;;7.60;;
68438;SDS011;55421;51.600;5.718;2023-10-19T02:36:44;9.60;;;6.50;;
68438;SDS011;55421;51.600;5.718;2023-10-19T02:39:12;9.70;;;6.40;;
68438;SDS011;55421;51.600;5.718;2023-10-19T02:41:45;7.00;;;5.40;;
68438;SDS011;55421;51.600;5.718;2023-10-19T02:44:16;7.50;;;5.60;;
68438;SDS011;55421;51.600;5.718;2023-10-19T02:46:52;7.70;;;5.90;;
68438;SDS011;55421;51.600;5.718;2023-10-19T02:49:25;7.70;;;5.50;;
68438;SDS011;55421;51.600;5.718;2023-10-19T02:51:54;6.30;;;5.10;;
68438;SDS011;55421;51.600;5.718;2023-10-19T02:54:24;9.50;;;5.30;;
68438;SDS011;55421;51.600;5.718;2023-10-19T02:56:55;7.20;;;4.70;;
68438;SDS011;55421;51.600;5.718;2023-10-19T02:59:24;5.80;;;4.70;;
68438;SDS011;55421;51.600;5.718;2023-10-19T03:01:57;7.70;;;5.10;;
68438;SDS011;55421;51.600;5.718;2023-10-19T03:04:27;6.60;;;5.30;;
68438;SDS011;55421;51.600;5.718;2023-10-19T03:06:57;7.70;;;5.90;;
68438;SDS011;55421;51.600;5.718;2023-10-19T03:09:23;9.10;;;4.50;;
68438;SDS011;55421;51.600;5.718;2023-10-19T03:11:53;6.60;;;5.20;;
68438;SDS011;55421;51.600;5.718;2023-10-19T03:14:23;8.70;;;5.00;;
68438;SDS011;55421;51.600;5.718;2023-10-19T03:16:55;6.50;;;5.20;;
68438;SDS011;55421;51.600;5.718;2023-10-19T03:19:23;6.90;;;5.00;;
68438;SDS011;55421;51.600;5.718;2023-10-19T03:21:51;8.00;;;4.80;;
68438;SDS011;55421;51.600;5.718;2023-10-19T03:24:19;6.70;;;4.90;;
68438;SDS011;55421;51.600;5.718;2023-10-19T03:27:06;9.60;;;5.00;;
68438;SDS011;55421;51.600;5.718;2023-10-19T03:29:42;5.70;;;4.80;;
68438;SDS011;55421;51.600;5.718;2023-10-19T03:32:29;5.80;;;4.60;;
68438;SDS011;55421;51.600;5.718;2023-10-19T03:35:01;6.50;;;4.70;;
68438;SDS011;55421;51.600;5.718;2023-10-19T03:37:31;5.80;;;4.80;;
68438;SDS011;55421;51.600;5.718;2023-10-19T03:39:58;5.20;;;4.30;;
68438;SDS011;55421;51.600;5.718;2023-10-19T03:42:25;5.90;;;4.40;;
68438;SDS011;55421;51.600;5.718;2023-10-19T03:44:55;4.60;;;4.10;;
68438;SDS011;55421;51.600;5.718;2023-10-19T03:47:23;6.00;;;4.20;;
68438;SDS011;55421;51.600;5.718;2023-10-19T03:50:04;5.90;;;4.10;;
68438;SDS011;55421;51.600;5.718;2023-10-19T03:52:36;6.40;;;4.30;;
68438;SDS011;55421;51.600;5.718;2023-10-19T03:55:06;8.00;;;4.00;;
68438;SDS011;55421;51.600;5.718;2023-10-19T03:57:49;7.50;;;4.20;;
68438;SDS011;55421;51.600;5.718;2023-10-19T04:00:22;5.00;;;4.20;;
68438;SDS011;55421;51.600;5.718;2023-10-19T04:02:53;9.90;;;4.20;;
68438;SDS011;55421;51.600;5.718;2023-10-19T04:05:22;6.30;;;4.10;;
68438;SDS011;55421;51.600;5.718;2023-10-19T04:07:49;7.10;;;4.40;;
68438;SDS011;55421;51.600;5.718;2023-10-19T04:10:22;7.80;;;3.80;;
68438;SDS011;55421;51.600;5.718;2023-10-19T04:13:01;8.00;;;4.00;;
68438;SDS011;55421;51.600;5.718;2023-10-19T04:15:29;8.50;;;4.20;;
68438;SDS011;55421;51.600;5.718;2023-10-19T04:17:59;6.20;;;4.30;;
68438;SDS011;55421;51.600;5.718;2023-10-19T04:20:26;4.80;;;3.80;;
68438;SDS011;55421;51.600;5.718;2023-10-19T04:22:56;4.00;;;3.60;;
68438;SDS011;55421;51.600;5.718;2023-10-19T04:25:32;7.10;;;3.70;;
68438;SDS011;55421;51.600;5.718;2023-10-19T04:27:59;6.10;;;3.50;;
68438;SDS011;55421;51.600;5.718;2023-10-19T04:30:26;3.90;;;3.20;;
68438;SDS011;55421;51.600;5.718;2023-10-19T04:32:53;7.50;;;3.50;;
68438;SDS011;55421;51.600;5.718;2023-10-19T04:35:23;5.30;;;3.50;;
68438;SDS011;55421;51.600;5.718;2023-10-19T04:37:51;4.90;;;3.10;;
68438;SDS011;55421;51.600;5.718;2023-10-19T04:40:19;4.40;;;3.60;;
68438;SDS011;55421;51.600;5.718;2023-10-19T04:42:48;3.90;;;3.20;;
68438;SDS011;55421;51.600;5.718;2023-10-19T04:45:17;4.90;;;3.50;;
68438;SDS011;55421;51.600;5.718;2023-10-19T04:47:44;6.30;;;3.30;;
68438;SDS011;55421;51.600;5.718;2023-10-19T04:50:12;4.60;;;3.30;;
68438;SDS011;55421;51.600;5.718;2023-10-19T04:52:39;7.20;;;3.00;;
68438;SDS011;55421;51.600;5.718;2023-10-19T04:55:06;5.10;;;3.20;;
68438;SDS011;55421;51.600;5.718;2023-10-19T04:57:33;8.70;;;3.00;;
68438;SDS011;55421;51.600;5.718;2023-10-19T04:59:59;6.00;;;3.30;;
68438;SDS011;55421;51.600;5.718;2023-10-19T05:02:26;6.10;;;2.90;;
68438;SDS011;55421;51.600;5.718;2023-10-19T05:04:53;5.30;;;2.50;;
68438;SDS011;55421;51.600;5.718;2023-10-19T05:07:20;19.30;;;3.00;;
68438;SDS011;55421;51.600;5.718;2023-10-19T05:09:47;4.40;;;2.50;;
68438;SDS011;55421;51.600;5.718;2023-10-19T05:12:14;16.30;;;3.00;;
68438;SDS011;55421;51.600;5.718;2023-10-19T05:14:42;3.70;;;2.10;;
68438;SDS011;55421;51.600;5.718;2023-10-19T05:17:09;5.30;;;2.30;;
68438;SDS011;55421;51.600;5.718;2023-10-19T05:19:37;3.60;;;2.00;;
68438;SDS011;55421;51.600;5.718;2023-10-19T05:22:08;5.20;;;1.70;;
68438;SDS011;55421;51.600;5.718;2023-10-19T05:24:35;7.10;;;1.70;;
68438;SDS011;55421;51.600;5.718;2023-10-19T05:27:02;1.80;;;1.40;;
68438;SDS011;55421;51.600;5.718;2023-10-19T05:29:31;6.50;;;1.50;;
68438;SDS011;55421;51.600;5.718;2023-10-19T05:32:02;2.10;;;1.30;;
68438;SDS011;55421;51.600;5.718;2023-10-19T05:34:29;5.20;;;2.00;;
68438;SDS011;55421;51.600;5.718;2023-10-19T05:36:58;9.70;;;2.10;;
68438;SDS011;55421;51.600;5.718;2023-10-19T05:39:28;11.20;;;1.70;;
68438;SDS011;55421;51.600;5.718;2023-10-19T05:41:57;5.80;;;1.70;;
68438;SDS011;55421;51.600;5.718;2023-10-19T05:44:28;6.60;;;1.70;;
68438;SDS011;55421;51.600;5.718;2023-10-19T05:46:57;4.80;;;1.40;;
68438;SDS011;55421;51.600;5.718;2023-10-19T05:49:24;4.50;;;1.50;;
68438;SDS011;55421;51.600;5.718;2023-10-19T05:51:51;8.60;;;1.80;;
68438;SDS011;55421;51.600;5.718;2023-10-19T05:54:17;6.60;;;1.60;;
68438;SDS011;55421;51.600;5.718;2023-10-19T05:56:44;5.70;;;1.90;;
68438;SDS011;55421;51.600;5.718;2023-10-19T05:59:12;1.70;;;1.30;;
68438;SDS011;55421;51.600;5.718;2023-10-19T06:01:39;7.10;;;1.60;;
68438;SDS011;55421;51.600;5.718;2023-10-19T06:04:07;4.10;;;1.70;;
68438;SDS011;55421;51.600;5.718;2023-10-19T06:06:34;3.70;;;1.30;;
68438;SDS011;55421;51.600;5.718;2023-10-19T06:09:02;9.80;;;2.60;;
68438;SDS011;55421;51.600;5.718;2023-10-19T06:11:30;6.40;;;1.60;;
68438;SDS011;55421;51.600;5.718;2023-10-19T06:13:59;6.20;;;1.50;;
68438;SDS011;55421;51.600;5.718;2023-10-19T06:16:27;4.60;;;1.80;;
68438;SDS011;55421;51.600;5.718;2023-10-19T06:18:54;5.90;;;1.80;;
68438;SDS011;55421;51.600;5.718;2023-10-19T06:21:21;2.40;;;1.30;;
68438;SDS011;55421;51.600;5.718;2023-10-19T06:23:48;3.80;;;1.60;;
68438;SDS011;55421;51.600;5.718;2023-10-19T06:26:16;4.10;;;1.40;;
68438;SDS011;55421;51.600;5.718;2023-10-19T06:28:43;5.10;;;2.00;;
68438;SDS011;55421;51.600;5.718;2023-10-19T06:31:10;4.10;;;1.40;;
68438;SDS011;55421;51.600;5.718;2023-10-19T06:33:36;7.80;;;2.10;;
68438;SDS011;55421;51.600;5.718;2023-10-19T06:36:07;5.60;;;2.00;;
68438;SDS011;55421;51.600;5.718;2023-10-19T06:38:34;5.90;;;2.00;;
68438;SDS011;55421;51.600;5.718;2023-10-19T06:41:00;8.70;;;1.60;;
68438;SDS011;55421;51.600;5.718;2023-10-19T06:43:29;6.90;;;1.70;;
68438;SDS011;55421;51.600;5.718;2023-10-19T06:45:56;5.50;;;1.80;;
68438;SDS011;55421;51.600;5.718;2023-10-19T06:48:23;6.50;;;1.90;;
68438;SDS011;55421;51.600;5.718;2023-10-19T06:50:50;2.50;;;1.40;;
68438;SDS011;55421;51.600;5.718;2023-10-19T06:53:16;5.80;;;2.00;;
68438;SDS011;55421;51.600;5.718;2023-10-19T06:55:43;6.90;;;1.70;;
68438;SDS011;55421;51.600;5.718;2023-10-19T06:58:09;4.10;;;1.40;;
68438;SDS011;55421;51.600;5.718;2023-10-19T07:00:37;7.40;;;1.90;;
68438;SDS011;55421;51.600;5.718;2023-10-19T07:03:09;5.80;;;1.50;;
68438;SDS011;55421;51.600;5.718;2023-10-19T07:05:37;6.60;;;1.70;;
68438;SDS011;55421;51.600;5.718;2023-10-19T07:08:05;5.30;;;1.60;;
68438;SDS011;55421;51.600;5.718;2023-10-19T07:10:33;5.20;;;1.80;;
68438;SDS011;55421;51.600;5.718;2023-10-19T07:13:01;5.30;;;1.50;;
68438;SDS011;55421;51.600;5.718;2023-10-19T07:15:28;5.00;;;2.00;;
68438;SDS011;55421;51.600;5.718;2023-10-19T07:17:56;7.20;;;1.80;;
68438;SDS011;55421;51.600;5.718;2023-10-19T07:20:22;5.10;;;2.30;;
68438;SDS011;55421;51.600;5.718;2023-10-19T07:22:56;6.60;;;1.90;;
68438;SDS011;55421;51.600;5.718;2023-10-19T07:25:30;3.90;;;1.70;;
68438;SDS011;55421;51.600;5.718;2023-10-19T07:27:57;5.40;;;1.70;;
68438;SDS011;55421;51.600;5.718;2023-10-19T07:30:26;6.30;;;1.70;;
68438;SDS011;55421;51.600;5.718;2023-10-19T07:32:52;6.50;;;2.00;;
68438;SDS011;55421;51.600;5.718;2023-10-19T07:35:28;9.80;;;3.10;;
68438;SDS011;55421;51.600;5.718;2023-10-19T07:37:57;3.60;;;2.20;;
68438;SDS011;55421;51.600;5.718;2023-10-19T07:40:23;6.10;;;2.10;;
68438;SDS011;55421;51.600;5.718;2023-10-19T07:42:52;6.40;;;2.80;;
68438;SDS011;55421;51.600;5.718;2023-10-19T07:45:20;7.80;;;2.20;;
68438;SDS011;55421;51.600;5.718;2023-10-19T07:47:48;7.20;;;2.10;;
68438;SDS011;55421;51.600;5.718;2023-10-19T07:50:14;9.60;;;2.20;;
68438;SDS011;55421;51.600;5.718;2023-10-19T07:52:45;8.00;;;2.00;;
68438;SDS011;55421;51.600;5.718;2023-10-19T07:55:16;5.90;;;2.20;;
68438;SDS011;55421;51.600;5.718;2023-10-19T07:57:44;4.80;;;1.70;;
68438;SDS011;55421;51.600;5.718;2023-10-19T08:00:12;7.10;;;2.00;;
68438;SDS011;55421;51.600;5.718;2023-10-19T08:02:41;7.10;;;2.30;;
68438;SDS011;55421;51.600;5.718;2023-10-19T08:05:08;8.00;;;2.20;;
68438;SDS011;55421;51.600;5.718;2023-10-19T08:07:38;6.90;;;2.20;;
68438;SDS011;55421;51.600;5.718;2023-10-19T08:10:18;8.00;;;2.40;;
68438;SDS011;55421;51.600;5.718;2023-10-19T08:12:47;11.10;;;2.30;;
68438;SDS011;55421;51.600;5.718;2023-10-19T08:15:16;4.00;;;1.70;;
68438;SDS011;55421;51.600;5.718;2023-10-19T08:17:45;5.50;;;1.90;;
68438;SDS011;55421;51.600;5.718;2023-10-19T08:20:14;3.70;;;1.70;;
68438;SDS011;55421;51.600;5.718;2023-10-19T08:22:54;11.80;;;2.20;;
68438;SDS011;55421;51.600;5.718;2023-10-19T08:25:35;8.40;;;2.70;;
68438;SDS011;55421;51.600;5.718;2023-10-19T08:28:01;9.20;;;1.80;;
68438;SDS011;55421;51.600;5.718;2023-10-19T08:30:28;7.90;;;1.70;;
68438;SDS011;55421;51.600;5.718;2023-10-19T08:32:54;6.40;;;2.20;;
68438;SDS011;55421;51.600;5.718;2023-10-19T08:35:23;4.60;;;2.00;;
68438;SDS011;55421;51.600;5.718;2023-10-19T08:37:54;10.00;;;2.40;;
68438;SDS011;55421;51.600;5.718;2023-10-19T08:40:24;9.30;;;2.70;;
68438;SDS011;55421;51.600;5.718;2023-10-19T08:42:53;10.20;;;2.40;;
68438;SDS011;55421;51.600;5.718;2023-10-19T08:45:20;6.60;;;1.90;;
68438;SDS011;55421;51.600;5.718;2023-10-19T08:47:58;8.90;;;2.10;;
68438;SDS011;55421;51.600;5.718;2023-10-19T08:50:29;5.90;;;2.20;;
68438;SDS011;55421;51.600;5.718;2023-10-19T08:53:00;5.20;;;2.60;;
68438;SDS011;55421;51.600;5.718;2023-10-19T08:55:29;8.20;;;2.20;;
68438;SDS011;55421;51.600;5.718;2023-10-19T08:57:57;12.10;;;2.90;;
68438;SDS011;55421;51.600;5.718;2023-10-19T09:00:27;6.40;;;2.50;;
68438;SDS011;55421;51.600;5.718;2023-10-19T09:02:54;11.70;;;2.60;;
68438;SDS011;55421;51.600;5.718;2023-10-19T09:05:22;5.60;;;2.00;;
68438;SDS011;55421;51.600;5.718;2023-10-19T09:07:49;6.70;;;2.10;;
68438;SDS011;55421;51.600;5.718;2023-10-19T09:10:25;8.70;;;2.10;;
68438;SDS011;55421;51.600;5.718;2023-10-19T09:13:07;6.70;;;1.80;;
68438;SDS011;55421;51.600;5.718;2023-10-19T09:15:39;9.70;;;2.60;;
68438;SDS011;55421;51.600;5.718;2023-10-19T09:18:15;6.40;;;1.80;;
68438;SDS011;55421;51.600;5.718;2023-10-19T09:20:47;6.10;;;2.00;;
68438;SDS011;55421;51.600;5.718;2023-10-19T09:23:23;9.90;;;2.50;;
68438;SDS011;55421;51.600;5.718;2023-10-19T09:25:57;9.00;;;2.30;;
68438;SDS011;55421;51.600;5.718;2023-10-19T09:28:29;7.20;;;2.50;;
68438;SDS011;55421;51.600;5.718;2023-10-19T09:30:59;6.60;;;2.50;;
68438;SDS011;55421;51.600;5.718;2023-10-19T09:33:27;5.80;;;2.20;;
68438;SDS011;55421;51.600;5.718;2023-10-19T09:35:55;14.60;;;3.30;;
68438;SDS011;55421;51.600;5.718;2023-10-19T09:40:54;7.60;;;2.00;;
68438;SDS011;55421;51.600;5.718;2023-10-19T09:43:34;11.30;;;2.10;;
68438;SDS011;55421;51.600;5.718;2023-10-19T09:46:07;8.10;;;2.70;;
68438;SDS011;55421;51.600;5.718;2023-10-19T09:48:39;14.40;;;3.40;;
68438;SDS011;55421;51.600;5.718;2023-10-19T09:51:14;7.80;;;2.30;;
68438;SDS011;55421;51.600;5.718;2023-10-19T09:53:50;5.60;;;2.30;;
68438;SDS011;55421;51.600;5.718;2023-10-19T09:56:32;8.50;;;2.30;;
68438;SDS011;55421;51.600;5.718;2023-10-19T09:59:06;10.30;;;2.80;;
68438;SDS011;55421;51.600;5.718;2023-10-19T10:02:04;7.50;;;2.60;;
68438;SDS011;55421;51.600;5.718;2023-10-19T10:04:39;6.20;;;2.20;;
68438;SDS011;55421;51.600;5.718;2023-10-19T10:07:08;10.70;;;2.70;;
68438;SDS011;55421;51.600;5.718;2023-10-19T10:09:40;7.30;;;2.30;;
68438;SDS011;55421;51.600;5.718;2023-10-19T10:14:59;5.90;;;2.70;;
68438;SDS011;55421;51.600;5.718;2023-10-19T10:17:27;8.60;;;2.20;;
68438;SDS011;55421;51.600;5.718;2023-10-19T10:19:56;6.80;;;2.20;;
68438;SDS011;55421;51.600;5.718;2023-10-19T10:22:45;9.40;;;2.10;;
68438;SDS011;55421;51.600;5.718;2023-10-19T10:25:47;7.90;;;2.10;;
68438;SDS011;55421;51.600;5.718;2023-10-19T10:28:16;7.30;;;2.10;;
68438;SDS011;55421;51.600;5.718;2023-10-19T10:31:12;10.00;;;2.30;;
68438;SDS011;55421;51.600;5.718;2023-10-19T10:33:41;7.70;;;2.20;;
68438;SDS011;55421;51.600;5.718;2023-10-19T10:36:14;9.80;;;2.10;;
68438;SDS011;55421;51.600;5.718;2023-10-19T10:38:44;5.30;;;2.10;;
68438;SDS011;55421;51.600;5.718;2023-10-19T10:41:12;10.00;;;2.50;;
68438;SDS011;55421;51.600;5.718;2023-10-19T10:44:03;7.70;;;2.50;;
68438;SDS011;55421;51.600;5.718;2023-10-19T10:46:31;9.40;;;2.50;;
68438;SDS011;55421;51.600;5.718;2023-10-19T10:48:58;8.90;;;2.00;;
68438;SDS011;55421;51.600;5.718;2023-10-19T10:51:28;11.70;;;1.90;;
68438;SDS011;55421;51.600;5.718;2023-10-19T10:53:58;5.80;;;1.60;;
68438;SDS011;55421;51.600;5.718;2023-10-19T10:56:25;10.40;;;1.90;;
68438;SDS011;55421;51.600;5.718;2023-10-19T10:58:51;7.50;;;2.00;;
68438;SDS011;55421;51.600;5.718;2023-10-19T11:01:31;10.10;;;2.10;;
68438;SDS011;55421;51.600;5.718;2023-10-19T11:04:11;7.00;;;1.80;;
68438;SDS011;55421;51.600;5.718;2023-10-19T11:06:52;10.40;;;2.20;;
68438;SDS011;55421;51.600;5.718;2023-10-19T11:09:21;7.20;;;1.60;;
68438;SDS011;55421;51.600;5.718;2023-10-19T11:11:48;7.20;;;1.80;;
68438;SDS011;55421;51.600;5.718;2023-10-19T11:14:21;10.10;;;1.80;;
68438;SDS011;55421;51.600;5.718;2023-10-19T11:16:51;9.50;;;1.80;;
68438;SDS011;55421;51.600;5.718;2023-10-19T11:19:17;9.30;;;2.30;;
68438;SDS011;55421;51.600;5.718;2023-10-19T11:21:53;12.50;;;2.10;;
68438;SDS011;55421;51.600;5.718;2023-10-19T11:24:26;7.90;;;1.80;;
68438;SDS011;55421;51.600;5.718;2023-10-19T11:26:53;4.70;;;1.50;;
68438;SDS011;55421;51.600;5.718;2023-10-19T11:29:20;7.60;;;1.80;;
68438;SDS011;55421;51.600;5.718;2023-10-19T11:32:00;5.50;;;1.90;;
68438;SDS011;55421;51.600;5.718;2023-10-19T11:34:28;7.90;;;2.80;;
68438;SDS011;55421;51.600;5.718;2023-10-19T11:36:56;10.00;;;2.30;;
68438;SDS011;55421;51.600;5.718;2023-10-19T11:39:26;11.00;;;2.20;;
68438;SDS011;55421;51.600;5.718;2023-10-19T11:41:52;10.70;;;2.40;;
68438;SDS011;55421;51.600;5.718;2023-10-19T11:44:19;7.80;;;1.90;;
68438;SDS011;55421;51.600;5.718;2023-10-19T11:46:46;12.70;;;2.40;;
68438;SDS011;55421;51.600;5.718;2023-10-19T11:49:12;9.50;;;2.10;;
68438;SDS011;55421;51.600;5.718;2023-10-19T11:51:39;9.00;;;1.90;;
68438;SDS011;55421;51.600;5.718;2023-10-19T11:54:05;6.70;;;1.90;;
68438;SDS011;55421;51.600;5.718;2023-10-19T11:56:32;13.00;;;2.50;;
68438;SDS011;55421;51.600;5.718;2023-10-19T11:58:58;8.40;;;2.00;;
68438;SDS011;55421;51.600;5.718;2023-10-19T12:01:25;7.30;;;1.70;;
68438;SDS011;55421;51.600;5.718;2023-10-19T12:03:53;9.00;;;1.90;;
68438;SDS011;55421;51.600;5.718;2023-10-19T12:06:19;10.30;;;2.80;;
68438;SDS011;55421;51.600;5.718;2023-10-19T12:08:46;7.10;;;1.80;;
68438;SDS011;55421;51.600;5.718;2023-10-19T12:11:13;10.30;;;2.20;;
68438;SDS011;55421;51.600;5.718;2023-10-19T12:13:43;10.10;;;1.90;;
68438;SDS011;55421;51.600;5.718;2023-10-19T12:16:11;9.70;;;2.20;;
68438;SDS011;55421;51.600;5.718;2023-10-19T12:18:46;8.00;;;2.10;;
68438;SDS011;55421;51.600;5.718;2023-10-19T12:21:14;11.30;;;2.10;;
68438;SDS011;55421;51.600;5.718;2023-10-19T12:23:42;9.70;;;1.80;;
68438;SDS011;55421;51.600;5.718;2023-10-19T12:26:10;16.70;;;2.30;;
68438;SDS011;55421;51.600;5.718;2023-10-19T12:28:38;9.60;;;2.00;;
68438;SDS011;55421;51.600;5.718;2023-10-19T12:31:05;9.00;;;2.70;;
68438;SDS011;55421;51.600;5.718;2023-10-19T12:33:31;11.10;;;2.50;;
68438;SDS011;55421;51.600;5.718;2023-10-19T12:35:58;11.90;;;2.40;;
68438;SDS011;55421;51.600;5.718;2023-10-19T12:38:25;8.20;;;2.70;;
68438;SDS011;55421;51.600;5.718;2023-10-19T12:40:52;11.00;;;3.00;;
68438;SDS011;55421;51.600;5.718;2023-10-19T12:43:19;8.10;;;2.40;;
68438;SDS011;55421;51.600;5.718;2023-10-19T12:45:45;11.90;;;2.50;;
68438;SDS011;55421;51.600;5.718;2023-10-19T12:48:17;11.00;;;3.00;;
68438;SDS011;55421;51.600;5.718;2023-10-19T12:50:43;10.30;;;2.60;;
68438;SDS011;55421;51.600;5.718;2023-10-19T12:53:10;9.70;;;2.40;;
68438;SDS011;55421;51.600;5.718;2023-10-19T12:55:37;12.10;;;2.50;;
68438;SDS011;55421;51.600;5.718;2023-10-19T12:58:06;8.80;;;2.20;;
68438;SDS011;55421;51.600;5.718;2023-10-19T13:00:36;6.80;;;2.40;;
68438;SDS011;55421;51.600;5.718;2023-10-19T13:03:06;11.70;;;3.60;;
68438;SDS011;55421;51.600;5.718;2023-10-19T13:05:34;14.00;;;2.80;;
68438;SDS011;55421;51.600;5.718;2023-10-19T13:08:11;9.40;;;2.50;;
68438;SDS011;55421;51.600;5.718;2023-10-19T13:10:45;10.90;;;2.50;;
68438;SDS011;55421;51.600;5.718;2023-10-19T13:13:14;9.30;;;2.20;;
68438;SDS011;55421;51.600;5.718;2023-10-19T13:15:42;8.00;;;2.60;;
68438;SDS011;55421;51.600;5.718;2023-10-19T13:18:11;7.00;;;2.40;;
68438;SDS011;55421;51.600;5.718;2023-10-19T13:20:53;10.50;;;2.70;;
68438;SDS011;55421;51.600;5.718;2023-10-19T13:23:20;8.30;;;2.80;;
68438;SDS011;55421;51.600;5.718;2023-10-19T13:25:49;13.30;;;3.40;;
68438;SDS011;55421;51.600;5.718;2023-10-19T13:28:18;9.00;;;2.60;;
68438;SDS011;55421;51.600;5.718;2023-10-19T13:30:48;13.10;;;3.90;;
68438;SDS011;55421;51.600;5.718;2023-10-19T13:33:17;11.00;;;3.90;;
68438;SDS011;55421;51.600;5.718;2023-10-19T13:35:45;14.10;;;4.20;;
68438;SDS011;55421;51.600;5.718;2023-10-19T13:38:12;9.60;;;3.70;;
68438;SDS011;55421;51.600;5.718;2023-10-19T13:40:41;9.60;;;3.40;;
68438;SDS011;55421;51.600;5.718;2023-10-19T13:43:09;8.90;;;2.90;;
68438;SDS011;55421;51.600;5.718;2023-10-19T13:45:41;6.90;;;3.00;;
68438;SDS011;55421;51.600;5.718;2023-10-19T13:48:10;8.80;;;3.00;;
68438;SDS011;55421;51.600;5.718;2023-10-19T13:50:46;11.50;;;2.90;;
68438;SDS011;55421;51.600;5.718;2023-10-19T13:53:15;5.80;;;2.80;;
68438;SDS011;55421;51.600;5.718;2023-10-19T13:55:42;12.20;;;3.00;;
68438;SDS011;55421;51.600;5.718;2023-10-19T13:58:09;10.80;;;2.70;;
68438;SDS011;55421;51.600;5.718;2023-10-19T14:00:37;7.50;;;2.60;;
68438;SDS011;55421;51.600;5.718;2023-10-19T14:03:07;6.40;;;2.90;;
68438;SDS011;55421;51.600;5.718;2023-10-19T14:05:43;8.50;;;2.80;;
68438;SDS011;55421;51.600;5.718;2023-10-19T14:08:14;14.00;;;3.30;;
68438;SDS011;55421;51.600;5.718;2023-10-19T14:10:42;8.10;;;2.90;;
68438;SDS011;55421;51.600;5.718;2023-10-19T14:13:10;5.90;;;3.10;;
68438;SDS011;55421;51.600;5.718;2023-10-19T14:15:41;6.90;;;2.90;;
68438;SDS011;55421;51.600;5.718;2023-10-19T14:18:09;6.20;;;3.30;;
68438;SDS011;55421;51.600;5.718;2023-10-19T14:20:37;13.70;;;3.80;;
68438;SDS011;55421;51.600;5.718;2023-10-19T14:23:05;11.20;;;4.20;;
68438;SDS011;55421;51.600;5.718;2023-10-19T14:25:36;13.50;;;4.20;;
68438;SDS011;55421;51.600;5.718;2023-10-19T14:28:08;11.00;;;3.70;;
68438;SDS011;55421;51.600;5.718;2023-10-19T14:30:36;8.40;;;3.80;;
68438;SDS011;55421;51.600;5.718;2023-10-19T14:33:02;9.70;;;4.30;;
68438;SDS011;55421;51.600;5.718;2023-10-19T14:35:30;10.20;;;4.50;;
68438;SDS011;55421;51.600;5.718;2023-10-19T14:37:57;12.80;;;4.90;;
68438;SDS011;55421;51.600;5.718;2023-10-19T14:40:27;11.70;;;4.80;;
68438;SDS011;55421;51.600;5.718;2023-10-19T14:42:55;10.00;;;4.60;;
68438;SDS011;55421;51.600;5.718;2023-10-19T14:45:26;11.70;;;4.40;;
68438;SDS011;55421;51.600;5.718;2023-10-19T14:47:57;10.90;;;4.50;;
68438;SDS011;55421;51.600;5.718;2023-10-19T14:50:25;12.40;;;6.00;;
68438;SDS011;55421;51.600;5.718;2023-10-19T14:52:53;12.20;;;5.40;;
68438;SDS011;55421;51.600;5.718;2023-10-19T14:55:21;11.40;;;4.10;;
68438;SDS011;55421;51.600;5.718;2023-10-19T14:57:51;12.70;;;4.70;;
68438;SDS011;55421;51.600;5.718;2023-10-19T15:00:24;10.60;;;5.00;;
68438;SDS011;55421;51.600;5.718;2023-10-19T15:03:02;12.00;;;5.00;;
68438;SDS011;55421;51.600;5.718;2023-10-19T15:05:36;10.80;;;4.60;;
68438;SDS011;55421;51.600;5.718;2023-10-19T15:08:04;9.70;;;5.40;;